Seale, Alabama
Current Conditions -  °F | °C
As of 7:58 PM on Monday 24 Nov 2014 (Local Time) from KLSF Reporting Station
Haze Haze  
Wind Chill: 57°   Ceiling: Unl
Heat Index: 57°   Visibility: 5mi
Dew Point: 56°   Wind: 0mph
Humidity: 95%   Direction: NA
Pressure: 29.93"   Gusts: NA
Location:  32.3°N, 85.17°W
Report Text: KLSF 250158Z AUTO 00000KT 5SM R33/5000FT BR CLR 14/13 A2993 RMK AO2 SLP137 T01390131
Loading
Personal Weather Stations






























Interactive Weather Map New forecast layout! Learn more

10-Day Weather Forecast

Advertisements
Track Severe Weather on mobile